Time;durP1;ratioP1;P1;durP2;ratioP2;P2;SDS_P1;SDS_P2;PMS_P1;PMS_P2;Temp;Humidity;BMP_temperature;BMP_pressure;BME280_temperature;BME280_humidity;BME280_pressure;Samples;Min_cycle;Max_cycle;Signal;HPM_P1;HPM_P2
2020/12/21 00:02:16;;;;;;;10.73;7.77;;;7.40;99.90;;;;;;4977646;28;20209;-46
2020/12/21 00:04:42;;;;;;;8.47;7.13;;;7.40;99.90;;;;;;4967298;28;20200;-47
2020/12/21 00:07:07;;;;;;;11.53;7.73;;;7.40;99.90;;;;;;4983073;28;20267;-47
2020/12/21 00:09:33;;;;;;;10.90;7.40;;;7.30;99.90;;;;;;4974839;28;20268;-45
2020/12/21 00:11:58;;;;;;;15.33;8.17;;;7.30;99.90;;;;;;4976469;28;20216;-45
2020/12/21 00:14:24;;;;;;;11.47;7.57;;;7.20;99.90;;;;;;4959874;28;20197;-45
2020/12/21 00:16:51;;;;;;;13.83;7.57;;;7.20;99.90;;;;;;4985304;28;20177;-46
2020/12/21 00:19:18;;;;;;;8.33;6.83;;;7.20;99.90;;;;;;4978288;28;20256;-43
2020/12/21 00:21:45;;;;;;;12.77;7.40;;;7.20;99.90;;;;;;4983781;28;20202;-53
2020/12/21 00:24:10;;;;;;;11.77;7.73;;;7.20;99.90;;;;;;4977304;28;20266;-46
2020/12/21 00:26:36;;;;;;;11.33;8.00;;;7.10;99.90;;;;;;4975261;28;20170;-45
2020/12/21 00:29:02;;;;;;;10.37;6.43;;;7.10;99.90;;;;;;4966029;28;20244;-52
2020/12/21 00:31:33;;;;;;;11.60;7.20;;;7.10;99.90;;;;;;4971485;28;20202;-42
2020/12/21 00:34:00;;;;;;;15.00;8.00;;;7.10;99.90;;;;;;4982616;28;20681;-50
2020/12/21 00:36:26;;;;;;;11.20;7.17;;;7.00;99.90;;;;;;4970173;28;20194;-42
2020/12/21 00:38:52;;;;;;;12.87;8.17;;;7.00;99.90;;;;;;4977450;28;20276;-47
2020/12/21 00:41:19;;;;;;;13.83;7.60;;;7.00;99.90;;;;;;4974297;28;20681;-42
2020/12/21 00:43:46;;;;;;;9.83;7.33;;;7.00;99.90;;;;;;4974016;28;20217;-45
2020/12/21 00:46:20;;;;;;;14.30;7.10;;;7.00;99.90;;;;;;4960814;28;20190;-45
2020/12/21 00:48:46;;;;;;;14.60;7.87;;;7.00;99.90;;;;;;4972220;28;20258;-49
2020/12/21 00:51:13;;;;;;;14.17;7.60;;;6.90;99.90;;;;;;4978276;28;20563;-45
2020/12/21 00:53:39;;;;;;;13.90;7.07;;;6.90;99.90;;;;;;4973232;28;20166;-45
2020/12/21 00:56:06;;;;;;;17.50;7.57;;;6.90;99.90;;;;;;4963432;28;20244;-47
2020/12/21 00:58:33;;;;;;;12.90;7.63;;;6.80;99.90;;;;;;4973666;28;20182;-43
2020/12/21 01:01:00;;;;;;;12.87;7.20;;;6.80;99.90;;;;;;4963035;28;20277;-51
2020/12/21 01:03:26;;;;;;;11.10;7.37;;;6.70;99.90;;;;;;4975495;28;20206;-43
2020/12/21 01:05:53;;;;;;;15.47;7.33;;;6.70;99.90;;;;;;4975074;28;20318;-48
2020/12/21 01:08:19;;;;;;;11.50;7.33;;;6.70;99.90;;;;;;4985476;28;20193;-44
2020/12/21 01:10:44;;;;;;;10.37;7.03;;;6.70;99.90;;;;;;4967707;28;20201;-46
2020/12/21 01:13:10;;;;;;;13.23;7.20;;;6.70;99.90;;;;;;4977379;28;20574;-46
2020/12/21 01:15:35;;;;;;;12.87;7.07;;;6.70;99.90;;;;;;4965265;28;20205;-44
2020/12/21 01:18:01;;;;;;;13.23;6.47;;;6.70;99.90;;;;;;4982433;28;20277;-48
2020/12/21 01:20:26;;;;;;;15.50;7.63;;;6.70;99.90;;;;;;4982434;28;20177;-43
2020/12/21 01:22:52;;;;;;;11.77;7.03;;;6.70;99.90;;;;;;4973988;28;20220;-47
2020/12/21 01:25:17;;;;;;;12.57;6.50;;;6.60;99.90;;;;;;4985835;28;20301;-43
2020/12/21 01:27:42;;;;;;;12.77;6.73;;;6.70;99.90;;;;;;4973149;28;20248;-45
2020/12/21 01:30:08;;;;;;;11.00;6.53;;;6.70;99.90;;;;;;4975812;28;20169;-47
2020/12/21 01:32:33;;;;;;;11.63;6.17;;;6.60;99.90;;;;;;4959878;28;21588;-43
2020/12/21 01:34:59;;;;;;;9.37;7.03;;;6.70;99.90;;;;;;4974690;28;20187;-50
2020/12/21 01:37:24;;;;;;;8.97;6.10;;;6.70;99.90;;;;;;4978256;28;20669;-44
2020/12/21 01:39:50;;;;;;;13.30;6.57;;;6.60;99.90;;;;;;4983349;28;20170;-50
2020/12/21 01:42:16;;;;;;;8.57;5.83;;;6.60;99.90;;;;;;4979267;28;20201;-46
2020/12/21 01:44:44;;;;;;;11.77;5.83;;;6.60;99.90;;;;;;4969685;28;20189;-48
2020/12/21 01:47:11;;;;;;;14.40;5.97;;;6.60;99.90;;;;;;4967143;28;20193;-47
2020/12/21 01:49:37;;;;;;;7.67;6.17;;;6.60;99.90;;;;;;4967150;28;20181;-47
2020/12/21 01:52:05;;;;;;;10.53;5.37;;;6.60;99.90;;;;;;4973713;28;20568;-45
2020/12/21 01:54:31;;;;;;;8.53;5.47;;;6.60;99.90;;;;;;4976375;28;20253;-44
2020/12/21 01:56:56;;;;;;;5.93;4.77;;;6.60;99.90;;;;;;4981561;28;20794;-46
2020/12/21 01:59:22;;;;;;;9.30;5.70;;;6.60;99.90;;;;;;4971972;28;20189;-43
2020/12/21 02:01:50;;;;;;;7.27;4.90;;;6.70;99.90;;;;;;4956798;28;20363;-49
2020/12/21 02:04:15;;;;;;;9.17;4.80;;;6.70;99.90;;;;;;4985820;28;20227;-47
2020/12/21 02:06:41;;;;;;;12.50;5.90;;;6.70;99.90;;;;;;4966870;28;20190;-46
2020/12/21 02:09:06;;;;;;;10.17;4.80;;;6.70;99.90;;;;;;4990763;28;20215;-48
2020/12/21 02:11:32;;;;;;;8.83;4.57;;;6.70;99.90;;;;;;4976008;28;20285;-44
2020/12/21 02:13:57;;;;;;;12.70;4.83;;;6.80;99.90;;;;;;4977638;28;20213;-46
2020/12/21 02:16:23;;;;;;;6.67;4.43;;;6.80;99.90;;;;;;4972049;28;20252;-43
2020/12/21 02:18:48;;;;;;;8.67;5.20;;;6.80;99.90;;;;;;4964997;28;20288;-48
2020/12/21 02:21:14;;;;;;;9.80;4.70;;;6.80;99.90;;;;;;4972240;28;20202;-51
2020/12/21 02:23:39;;;;;;;9.20;4.77;;;6.80;99.90;;;;;;4974265;28;20958;-44
2020/12/21 02:26:05;;;;;;;8.13;4.53;;;6.80;99.90;;;;;;4981967;28;20233;-49
2020/12/21 02:28:30;;;;;;;9.10;4.70;;;6.90;99.90;;;;;;4974803;28;20549;-43
2020/12/21 02:30:56;;;;;;;11.70;4.67;;;6.80;99.90;;;;;;4968491;28;20186;-45
2020/12/21 02:33:21;;;;;;;8.43;4.57;;;6.90;99.90;;;;;;4962663;28;20190;-44
2020/12/21 02:35:47;;;;;;;11.10;4.70;;;6.90;99.90;;;;;;4987251;28;20240;-47
2020/12/21 02:38:12;;;;;;;7.00;4.30;;;6.90;99.90;;;;;;4984610;28;20215;-46
2020/12/21 02:40:39;;;;;;;8.93;4.20;;;6.90;99.90;;;;;;4976960;28;20184;-45
2020/12/21 02:43:05;;;;;;;7.80;4.67;;;6.90;99.90;;;;;;4982115;28;20218;-50
2020/12/21 02:45:30;;;;;;;7.50;4.50;;;6.90;99.90;;;;;;4969602;28;20727;-42
2020/12/21 02:47:55;;;;;;;8.90;4.00;;;6.90;99.90;;;;;;4978324;28;20201;-50
2020/12/21 02:50:21;;;;;;;9.53;4.87;;;6.90;99.90;;;;;;4961605;28;20278;-44
2020/12/21 02:52:47;;;;;;;8.30;4.63;;;6.80;99.90;;;;;;4985735;28;20233;-48
2020/12/21 02:55:13;;;;;;;7.93;4.40;;;6.80;99.90;;;;;;4977918;28;20186;-45
2020/12/21 02:57:38;;;;;;;6.97;4.13;;;6.80;99.90;;;;;;4976198;28;20177;-44
2020/12/21 03:00:08;;;;;;;9.43;4.57;;;6.80;99.90;;;;;;4985718;28;20185;-48
2020/12/21 03:02:33;;;;;;;6.87;4.60;;;6.70;99.90;;;;;;4967726;28;20223;-43
2020/12/21 03:04:59;;;;;;;7.73;4.43;;;6.70;99.90;;;;;;4965224;28;20202;-49
2020/12/21 03:07:24;;;;;;;8.77;4.37;;;6.70;99.90;;;;;;4978021;28;20265;-43
2020/12/21 03:09:50;;;;;;;8.07;4.17;;;6.70;99.90;;;;;;4981747;28;20210;-48
2020/12/21 03:12:15;;;;;;;7.27;4.70;;;6.70;99.90;;;;;;4987930;28;20288;-47
2020/12/21 03:14:41;;;;;;;6.50;4.63;;;6.70;99.90;;;;;;4981526;28;20804;-46
2020/12/21 03:17:06;;;;;;;12.33;5.40;;;6.60;99.90;;;;;;4968842;28;20197;-46
2020/12/21 03:19:32;;;;;;;7.77;4.73;;;6.60;99.90;;;;;;4961163;28;20257;-44
2020/12/21 03:21:57;;;;;;;7.37;4.53;;;6.60;99.90;;;;;;4967738;28;20682;-46
2020/12/21 03:24:22;;;;;;;8.70;4.70;;;6.60;99.90;;;;;;4980154;28;20215;-42
2020/12/21 03:26:48;;;;;;;10.10;5.10;;;6.60;99.90;;;;;;4971012;28;20178;-46
2020/12/21 03:29:14;;;;;;;11.93;5.20;;;6.60;99.90;;;;;;4983317;28;20185;-47
2020/12/21 03:31:39;;;;;;;10.80;5.47;;;6.60;99.90;;;;;;4972839;28;20205;-47
2020/12/21 03:34:05;;;;;;;9.73;5.37;;;6.60;99.90;;;;;;4980996;28;20182;-48
2020/12/21 03:36:30;;;;;;;11.13;5.10;;;6.60;99.90;;;;;;4969853;28;20245;-43
2020/12/21 03:38:56;;;;;;;19.47;8.20;;;6.60;99.90;;;;;;4982232;28;20189;-46
2020/12/21 03:41:21;;;;;;;12.07;5.17;;;6.60;99.90;;;;;;4968958;28;20685;-42
2020/12/21 03:43:47;;;;;;;7.93;5.43;;;6.60;99.90;;;;;;4981038;28;20233;-47
2020/12/21 03:46:12;;;;;;;8.27;5.27;;;6.60;99.90;;;;;;4988042;28;20197;-48
2020/12/21 03:48:38;;;;;;;10.43;5.20;;;6.60;99.90;;;;;;4976361;28;20185;-46
2020/12/21 03:51:03;;;;;;;8.80;5.07;;;6.60;99.90;;;;;;4964812;28;20202;-45
2020/12/21 03:53:29;;;;;;;10.73;5.87;;;6.60;99.90;;;;;;4969467;28;20198;-42
2020/12/21 03:55:54;;;;;;;10.23;5.50;;;6.60;99.90;;;;;;4976777;28;20952;-45
2020/12/21 03:58:20;;;;;;;10.50;6.37;;;6.60;99.90;;;;;;4981504;28;20185;-46
2020/12/21 04:00:45;;;;;;;9.20;5.27;;;6.70;99.90;;;;;;4964193;28;20206;-44
2020/12/21 04:03:11;;;;;;;9.70;5.70;;;6.70;99.90;;;;;;4968103;28;20246;-50
2020/12/21 04:05:36;;;;;;;12.03;5.67;;;6.70;99.90;;;;;;4963486;28;20186;-43
2020/12/21 04:08:02;;;;;;;13.10;6.07;;;6.70;99.90;;;;;;4975285;28;20181;-45
2020/12/21 04:10:27;;;;;;;13.10;5.47;;;6.70;99.90;;;;;;4985533;28;20193;-43
2020/12/21 04:12:53;;;;;;;9.50;5.73;;;6.70;99.90;;;;;;4973745;28;20244;-47
2020/12/21 04:15:19;;;;;;;8.63;5.27;;;6.80;99.90;;;;;;4986925;28;20190;-43
2020/12/21 04:17:44;;;;;;;13.07;6.13;;;6.80;99.90;;;;;;4969190;28;20178;-43
2020/12/21 04:20:10;;;;;;;12.10;6.03;;;6.80;99.90;;;;;;4966265;28;20221;-46
2020/12/21 04:22:35;;;;;;;8.47;5.90;;;6.80;99.90;;;;;;4969965;28;20217;-48
2020/12/21 04:25:01;;;;;;;9.03;5.20;;;6.80;99.90;;;;;;4976502;28;20925;-50
2020/12/21 04:27:26;;;;;;;11.17;5.83;;;6.90;99.90;;;;;;4983626;28;20177;-46
2020/12/21 04:29:52;;;;;;;21.03;7.20;;;6.90;99.90;;;;;;4975042;28;20189;-43
2020/12/21 04:32:17;;;;;;;14.93;6.67;;;6.90;99.90;;;;;;4981236;28;20658;-49
2020/12/21 04:34:43;;;;;;;12.10;6.07;;;6.90;99.90;;;;;;4971916;28;20584;-43
2020/12/21 04:37:08;;;;;;;13.97;7.07;;;6.90;99.90;;;;;;4967075;28;20202;-44
2020/12/21 04:39:34;;;;;;;16.23;7.57;;;6.90;99.90;;;;;;4985516;28;20163;-49
2020/12/21 04:42:00;;;;;;;16.20;7.40;;;7.00;99.90;;;;;;4969150;28;20200;-45
2020/12/21 04:44:26;;;;;;;13.07;5.80;;;7.00;99.90;;;;;;4971388;28;20209;-45
2020/12/21 04:46:53;;;;;;;13.73;6.30;;;7.00;99.90;;;;;;4969528;28;20539;-42
2020/12/21 04:49:19;;;;;;;10.97;6.13;;;7.00;99.90;;;;;;4979644;28;20186;-46
2020/12/21 04:51:46;;;;;;;11.83;6.87;;;7.00;99.90;;;;;;4970535;28;20198;-44
2020/12/21 04:54:13;;;;;;;10.20;6.57;;;7.00;99.90;;;;;;4965247;28;20193;-46
2020/12/21 04:56:40;;;;;;;13.23;8.13;;;7.00;99.90;;;;;;4983350;28;20199;-42
2020/12/21 04:59:05;;;;;;;13.70;6.93;;;7.10;99.90;;;;;;4968863;28;20276;-46
2020/12/21 05:01:31;;;;;;;11.50;6.20;;;7.10;99.90;;;;;;4985852;28;20288;-48
2020/12/21 05:03:57;;;;;;;8.07;5.97;;;7.10;99.90;;;;;;4966496;28;20209;-43
2020/12/21 05:06:23;;;;;;;12.17;7.13;;;7.10;99.90;;;;;;4974053;28;20214;-48
2020/12/21 05:09:05;;;;;;;10.03;6.00;;;7.10;99.90;;;;;;4954638;28;20216;-42
2020/12/21 05:11:32;;;;;;;14.23;6.70;;;7.20;99.90;;;;;;4967900;28;20233;-49
2020/12/21 05:14:11;;;;;;;11.00;6.53;;;7.20;99.90;;;;;;4969300;28;20189;-42
2020/12/21 05:16:37;;;;;;;12.10;7.27;;;7.20;99.90;;;;;;4979025;28;20273;-48
2020/12/21 05:19:04;;;;;;;12.83;8.73;;;7.20;99.90;;;;;;4975387;28;20217;-47
2020/12/21 05:21:31;;;;;;;12.57;6.63;;;7.20;99.90;;;;;;4971107;28;20209;-50
2020/12/21 05:24:03;;;;;;;18.53;8.83;;;7.30;99.90;;;;;;4960885;28;20206;-42
2020/12/21 05:26:32;;;;;;;12.80;7.90;;;7.30;99.90;;;;;;4976609;28;20538;-48
2020/12/21 05:29:02;;;;;;;21.07;9.47;;;7.30;99.90;;;;;;4964587;28;20299;-44
2020/12/21 05:31:30;;;;;;;17.70;8.33;;;7.30;99.90;;;;;;4968500;28;20205;-48
2020/12/21 05:33:56;;;;;;;14.60;8.27;;;7.30;99.90;;;;;;4982982;28;20265;-45
2020/12/21 05:36:23;;;;;;;19.80;8.37;;;7.30;99.90;;;;;;4976463;28;20288;-48
2020/12/21 05:39:04;;;;;;;16.83;7.97;;;7.30;99.90;;;;;;4975080;28;20201;-47
2020/12/21 05:41:30;;;;;;;16.90;7.97;;;7.40;99.90;;;;;;4965822;28;20217;-42
2020/12/21 05:43:59;;;;;;;15.83;7.80;;;7.40;99.90;;;;;;4975753;28;20198;-48
2020/12/21 05:46:25;;;;;;;14.60;7.90;;;7.40;99.90;;;;;;4975180;28;20193;-42
2020/12/21 05:48:52;;;;;;;9.60;7.07;;;7.40;99.90;;;;;;4985399;28;20233;-45
2020/12/21 05:51:22;;;;;;;18.50;8.20;;;7.40;99.90;;;;;;4982415;28;20229;-42
2020/12/21 05:53:51;;;;;;;23.73;11.17;;;7.40;99.90;;;;;;4981366;28;20185;-47
2020/12/21 05:56:19;;;;;;;11.77;8.53;;;7.40;99.90;;;;;;4975224;28;20201;-43
2020/12/21 05:58:45;;;;;;;19.53;9.93;;;7.40;99.90;;;;;;4985842;28;20861;-52
2020/12/21 06:01:12;;;;;;;23.17;9.67;;;7.40;99.90;;;;;;4982966;28;20213;-45
2020/12/21 06:03:42;;;;;;;18.13;10.23;;;7.40;99.90;;;;;;4981088;28;20217;-47
2020/12/21 06:06:28;;;;;;;21.57;9.60;;;7.40;99.90;;;;;;4972636;28;20197;-44
2020/12/21 06:08:55;;;;;;;19.33;6.90;;;7.40;99.90;;;;;;4969766;28;20193;-48
2020/12/21 06:11:23;;;;;;;21.80;9.63;;;7.40;99.90;;;;;;4970417;28;20224;-44
2020/12/21 06:13:50;;;;;;;21.40;8.13;;;7.40;99.90;;;;;;4974172;28;20852;-51
2020/12/21 06:16:17;;;;;;;14.63;8.10;;;7.40;99.90;;;;;;4980044;28;20193;-44
2020/12/21 06:18:43;;;;;;;13.33;7.67;;;7.40;99.90;;;;;;4981414;28;20195;-43
2020/12/21 06:21:09;;;;;;;17.60;7.80;;;7.40;99.90;;;;;;4978880;28;20217;-45
2020/12/21 06:23:39;;;;;;;19.97;9.40;;;7.40;99.90;;;;;;4971951;28;20225;-42
2020/12/21 06:26:11;;;;;;;15.57;7.97;;;7.40;99.90;;;;;;4966147;28;20278;-48
2020/12/21 06:28:38;;;;;;;24.73;8.57;;;7.40;99.90;;;;;;4983239;28;20184;-44
2020/12/21 06:31:11;;;;;;;21.07;7.63;;;7.40;99.90;;;;;;4980340;28;20209;-46
2020/12/21 06:33:38;;;;;;;13.27;8.07;;;7.40;99.90;;;;;;4984476;28;20188;-42
2020/12/21 06:36:03;;;;;;;16.73;7.80;;;7.40;99.90;;;;;;4974747;28;20189;-43
2020/12/21 06:38:49;;;;;;;15.07;8.40;;;7.40;99.90;;;;;;4972681;28;20300;-48
2020/12/21 06:41:23;;;;;;;17.97;9.23;;;7.40;99.90;;;;;;4958192;28;21970;-43
2020/12/21 06:44:03;;;;;;;14.03;8.37;;;7.40;99.90;;;;;;4978830;28;20273;-45
2020/12/21 06:46:30;;;;;;;13.20;8.20;;;7.40;99.90;;;;;;4966319;28;20196;-47
2020/12/21 06:49:02;;;;;;;18.77;8.90;;;7.40;99.90;;;;;;4981099;28;20174;-42
2020/12/21 06:51:29;;;;;;;22.60;8.67;;;7.40;99.90;;;;;;4964840;28;20498;-46
2020/12/21 06:54:13;;;;;;;17.37;8.90;;;7.30;99.90;;;;;;4974551;28;20236;-43
2020/12/21 06:56:40;;;;;;;14.47;8.27;;;7.30;99.90;;;;;;4981053;28;20255;-45
2020/12/21 06:59:14;;;;;;;15.70;7.70;;;7.30;99.90;;;;;;4953640;28;20221;-42
2020/12/21 07:01:42;;;;;;;23.10;10.03;;;7.30;99.90;;;;;;4974278;28;20344;-47
2020/12/21 07:04:13;;;;;;;15.43;7.67;;;7.30;99.90;;;;;;4979481;28;20228;-44
2020/12/21 07:06:40;;;;;;;18.77;9.60;;;7.30;99.90;;;;;;4967074;28;20189;-47
2020/12/21 07:09:06;;;;;;;19.60;8.43;;;7.30;99.90;;;;;;4970582;28;20190;-44
2020/12/21 07:11:32;;;;;;;16.67;8.73;;;7.30;99.90;;;;;;4970932;28;20212;-49
2020/12/21 07:13:58;;;;;;;29.30;11.27;;;7.30;99.90;;;;;;4958464;28;20202;-42
2020/12/21 07:16:23;;;;;;;17.33;7.73;;;7.30;99.90;;;;;;4972118;28;20177;-49
2020/12/21 07:18:49;;;;;;;18.63;8.90;;;7.30;99.90;;;;;;4980770;28;20271;-50
2020/12/21 07:21:16;;;;;;;14.93;8.00;;;7.30;99.90;;;;;;4980295;28;20205;-44
2020/12/21 07:23:42;;;;;;;20.47;8.10;;;7.20;99.90;;;;;;4976825;28;20213;-49
2020/12/21 07:26:09;;;;;;;20.27;8.53;;;7.20;99.90;;;;;;4970668;28;20210;-44
2020/12/21 07:28:35;;;;;;;18.30;8.90;;;7.20;99.90;;;;;;4973257;28;20182;-47
2020/12/21 07:31:12;;;;;;;22.17;8.77;;;7.20;99.90;;;;;;4956840;28;20213;-44
2020/12/21 07:33:59;;;;;;;15.73;8.07;;;7.20;99.90;;;;;;4978671;28;20199;-47
2020/12/21 07:36:35;;;;;;;17.53;7.73;;;7.20;99.90;;;;;;4980321;28;20193;-48
2020/12/21 07:39:09;;;;;;;20.27;8.50;;;7.20;99.90;;;;;;4976657;28;20227;-42
2020/12/21 07:41:42;;;;;;;13.47;6.70;;;7.10;99.90;;;;;;4963891;28;20194;-43
2020/12/21 07:44:14;;;;;;;16.23;8.20;;;7.10;99.90;;;;;;4966835;28;21044;-47
2020/12/21 07:46:53;;;;;;;24.93;10.13;;;7.10;99.90;;;;;;4966588;28;20283;-43
2020/12/21 07:49:18;;;;;;;13.23;6.87;;;7.00;99.90;;;;;;4977175;28;20189;-44
2020/12/21 07:51:45;;;;;;;13.47;7.10;;;7.00;99.90;;;;;;4971721;28;20212;-42
2020/12/21 07:54:12;;;;;;;15.80;9.07;;;7.00;99.90;;;;;;4972665;28;20193;-47
2020/12/21 07:56:38;;;;;;;27.63;11.97;;;7.00;99.90;;;;;;4977411;28;20190;-42
2020/12/21 07:59:12;;;;;;;20.17;9.37;;;6.90;99.90;;;;;;4974224;28;20836;-48
2020/12/21 08:01:39;;;;;;;13.23;6.60;;;6.80;99.90;;;;;;4967150;28;20920;-50
2020/12/21 08:04:13;;;;;;;15.60;7.63;;;6.80;99.90;;;;;;4976594;28;20220;-53
2020/12/21 08:06:41;;;;;;;18.07;8.20;;;6.80;99.90;;;;;;4956408;28;20241;-50
2020/12/21 08:09:08;;;;;;;20.80;9.87;;;6.70;99.90;;;;;;4973254;28;20193;-44
2020/12/21 08:11:36;;;;;;;14.27;8.53;;;6.70;99.90;;;;;;4953029;28;510774;-43
2020/12/21 08:14:02;;;;;;;27.73;9.37;;;6.70;99.90;;;;;;4965324;28;20193;-48
2020/12/21 08:16:28;;;;;;;12.30;7.33;;;6.70;99.90;;;;;;4969517;28;20224;-47
2020/12/21 08:18:54;;;;;;;17.60;7.33;;;6.60;99.90;;;;;;4971573;28;20795;-50
2020/12/21 08:21:23;;;;;;;17.50;7.50;;;6.60;99.90;;;;;;4982767;28;20213;-51
2020/12/21 08:23:58;;;;;;;11.27;6.30;;;6.60;99.90;;;;;;4977934;28;20378;-47
2020/12/21 08:26:25;;;;;;;22.80;7.40;;;6.60;99.90;;;;;;4980282;28;20196;-44
2020/12/21 08:28:52;;;;;;;9.27;6.03;;;6.60;99.90;;;;;;4967347;28;21835;-46
2020/12/21 08:31:19;;;;;;;14.47;6.60;;;6.50;99.90;;;;;;4967778;28;20197;-47
2020/12/21 08:34:04;;;;;;;20.37;7.20;;;6.60;99.90;;;;;;4965158;28;20194;-48
2020/12/21 08:36:34;;;;;;;17.97;8.80;;;6.60;99.90;;;;;;4978487;28;20201;-43
2020/12/21 08:39:10;;;;;;;21.07;8.53;;;6.60;99.90;;;;;;4975491;28;20193;-47
2020/12/21 08:41:50;;;;;;;18.30;6.60;;;6.60;99.90;;;;;;4967462;28;20212;-43
2020/12/21 08:44:24;;;;;;;16.90;6.73;;;6.60;99.90;;;;;;4964781;28;20213;-51
2020/12/21 08:46:51;;;;;;;10.60;6.00;;;6.60;99.90;;;;;;4960016;28;20279;-48
2020/12/21 08:49:17;;;;;;;11.00;5.50;;;6.60;99.90;;;;;;4977128;28;20217;-48
2020/12/21 08:51:43;;;;;;;11.20;5.80;;;6.60;99.90;;;;;;4980382;28;20212;-45
2020/12/21 08:54:08;;;;;;;15.50;6.00;;;6.60;99.90;;;;;;4994454;28;20238;-53
2020/12/21 08:56:34;;;;;;;16.07;5.93;;;6.70;99.90;;;;;;4982649;28;20260;-46
2020/12/21 08:58:59;;;;;;;30.00;8.63;;;6.80;99.90;;;;;;4970358;28;20193;-48
2020/12/21 09:01:25;;;;;;;11.30;5.27;;;6.80;99.90;;;;;;4967197;28;20694;-45
2020/12/21 09:03:50;;;;;;;14.83;5.73;;;6.80;99.90;;;;;;4961058;28;20201;-47
2020/12/21 09:06:17;;;;;;;14.40;6.93;;;6.80;99.90;;;;;;4984684;28;20184;-47
2020/12/21 09:08:43;;;;;;;11.73;4.87;;;6.90;99.90;;;;;;4975953;28;20189;-46
2020/12/21 09:11:08;;;;;;;12.60;5.40;;;6.90;99.90;;;;;;4974769;28;20202;-51
2020/12/21 09:13:34;;;;;;;16.83;6.30;;;6.90;99.90;;;;;;4974393;28;20657;-45
2020/12/21 09:16:01;;;;;;;11.10;4.40;;;6.90;99.90;;;;;;4964361;28;20324;-45
2020/12/21 09:18:26;;;;;;;16.67;6.20;;;7.00;99.90;;;;;;4968605;28;20197;-45
2020/12/21 09:20:52;;;;;;;10.90;4.27;;;7.00;99.90;;;;;;4978400;28;20212;-48
2020/12/21 09:23:17;;;;;;;8.27;3.80;;;7.00;99.90;;;;;;4972139;28;20978;-46
2020/12/21 09:25:43;;;;;;;9.50;3.83;;;7.00;99.90;;;;;;4979013;28;20197;-46
2020/12/21 09:28:08;;;;;;;9.77;3.83;;;7.10;99.90;;;;;;4969899;28;20166;-49
2020/12/21 09:30:34;;;;;;;8.80;4.13;;;7.00;99.90;;;;;;4981263;28;20217;-48
2020/12/21 09:32:59;;;;;;;11.70;4.00;;;7.10;99.90;;;;;;4952289;28;20256;-43
2020/12/21 09:35:25;;;;;;;10.63;4.83;;;7.10;99.90;;;;;;4977404;28;20873;-46
2020/12/21 09:37:51;;;;;;;15.80;6.20;;;7.10;99.90;;;;;;4970871;28;20624;-43
2020/12/21 09:40:17;;;;;;;10.97;4.80;;;7.10;99.90;;;;;;4972530;28;20174;-46
2020/12/21 09:42:42;;;;;;;10.87;4.67;;;7.10;99.90;;;;;;4962943;28;20297;-45
2020/12/21 09:45:08;;;;;;;8.07;3.93;;;7.10;99.90;;;;;;4956049;28;20249;-49
2020/12/21 09:47:33;;;;;;;7.13;3.90;;;7.20;99.90;;;;;;4959937;28;20929;-43
2020/12/21 09:49:59;;;;;;;12.93;5.50;;;7.20;99.90;;;;;;4959307;28;20193;-50
2020/12/21 09:52:24;;;;;;;10.67;4.73;;;7.30;99.90;;;;;;4974454;28;20243;-43
2020/12/21 09:54:50;;;;;;;11.23;3.77;;;7.30;99.90;;;;;;4966317;28;20864;-47
2020/12/21 09:57:15;;;;;;;16.37;4.20;;;7.40;99.90;;;;;;4977638;28;20185;-43
2020/12/21 09:59:41;;;;;;;18.73;5.47;;;7.40;99.90;;;;;;4974544;28;20194;-45
2020/12/21 10:02:09;;;;;;;10.50;3.03;;;7.50;99.90;;;;;;4972433;28;20212;-45
2020/12/21 10:04:34;;;;;;;10.33;5.20;;;7.60;99.90;;;;;;4959695;28;20202;-45
2020/12/21 10:07:00;;;;;;;7.80;3.53;;;7.70;99.90;;;;;;4980944;28;20181;-53
2020/12/21 10:09:26;;;;;;;7.37;3.40;;;7.60;99.90;;;;;;4970496;28;20167;-43
2020/12/21 10:11:51;;;;;;;8.00;3.87;;;7.60;99.90;;;;;;4979437;28;20234;-47
2020/12/21 10:14:17;;;;;;;9.77;4.30;;;7.60;99.90;;;;;;4967565;28;20174;-45
2020/12/21 10:16:42;;;;;;;7.90;3.20;;;7.60;99.90;;;;;;4976414;28;20215;-51
2020/12/21 10:19:07;;;;;;;8.30;4.57;;;7.60;99.90;;;;;;4972409;28;20189;-44
2020/12/21 10:21:33;;;;;;;11.93;4.90;;;7.60;99.90;;;;;;4965737;28;20912;-46
2020/12/21 10:23:59;;;;;;;8.93;3.23;;;7.60;99.90;;;;;;4975893;28;20205;-49
2020/12/21 10:26:24;;;;;;;13.77;3.60;;;7.60;99.90;;;;;;4978759;28;20217;-44
2020/12/21 10:28:50;;;;;;;35.43;8.23;;;7.70;99.90;;;;;;4985208;28;20181;-46
2020/12/21 10:31:15;;;;;;;8.77;3.50;;;7.70;99.90;;;;;;4975424;28;20201;-48
2020/12/21 10:33:41;;;;;;;12.17;3.63;;;7.70;99.90;;;;;;4974700;28;20200;-51
2020/12/21 10:36:06;;;;;;;3.67;2.80;;;7.70;99.90;;;;;;4967979;28;20220;-43
2020/12/21 10:38:32;;;;;;;11.20;3.50;;;7.80;99.90;;;;;;4975311;28;20330;-46
2020/12/21 10:40:57;;;;;;;9.20;2.87;;;7.80;99.90;;;;;;4984044;28;20188;-48
2020/12/21 10:43:23;;;;;;;13.73;3.90;;;7.80;99.90;;;;;;4985401;28;20550;-46
2020/12/21 10:45:48;;;;;;;17.20;4.37;;;7.80;99.90;;;;;;4979317;28;20186;-50
2020/12/21 10:48:14;;;;;;;8.93;3.07;;;7.90;99.90;;;;;;4963730;28;20530;-43
2020/12/21 10:50:39;;;;;;;5.20;3.40;;;8.00;99.90;;;;;;4968214;28;20580;-46
2020/12/21 10:53:05;;;;;;;12.73;4.63;;;8.00;99.90;;;;;;4958452;28;20209;-42
2020/12/21 10:55:30;;;;;;;6.27;2.60;;;8.10;99.90;;;;;;4968817;28;20192;-49
2020/12/21 10:57:56;;;;;;;14.10;4.73;;;8.10;99.90;;;;;;4971058;28;20209;-45
2020/12/21 11:00:24;;;;;;;8.20;4.23;;;8.20;99.90;;;;;;4972029;28;20205;-50
2020/12/21 11:02:50;;;;;;;7.60;3.33;;;8.30;99.90;;;;;;4971772;28;20649;-45
2020/12/21 11:05:15;;;;;;;20.47;6.30;;;8.30;99.90;;;;;;4963318;28;20243;-41
2020/12/21 11:07:41;;;;;;;10.43;4.57;;;8.30;99.90;;;;;;4962110;28;20174;-43
2020/12/21 11:10:09;;;;;;;8.13;4.07;;;8.30;99.90;;;;;;4980748;28;20189;-43
2020/12/21 11:12:35;;;;;;;7.37;4.00;;;8.30;99.90;;;;;;4969835;28;20222;-39
2020/12/21 11:15:01;;;;;;;6.97;2.57;;;8.30;99.90;;;;;;4983349;28;20185;-48
2020/12/21 11:17:26;;;;;;;4.47;2.53;;;8.30;99.90;;;;;;4968910;28;20185;-42
2020/12/21 11:19:52;;;;;;;9.90;2.77;;;8.30;99.90;;;;;;4968702;28;20208;-44
2020/12/21 11:22:17;;;;;;;7.13;2.90;;;8.40;99.90;;;;;;4958610;28;20260;-42
2020/12/21 11:24:43;;;;;;;9.37;2.77;;;8.40;99.90;;;;;;4969265;28;20220;-45
2020/12/21 11:27:08;;;;;;;6.67;3.10;;;8.40;99.90;;;;;;4976927;28;20190;-44
2020/12/21 11:29:34;;;;;;;3.73;2.03;;;8.40;99.90;;;;;;4967837;28;20193;-50
2020/12/21 11:31:59;;;;;;;7.93;3.03;;;8.50;99.90;;;;;;4979814;28;20619;-46
2020/12/21 11:34:25;;;;;;;7.00;2.37;;;8.50;99.90;;;;;;4961533;28;20201;-50
2020/12/21 11:36:50;;;;;;;10.43;3.33;;;8.50;99.90;;;;;;4959611;28;22021;-42
2020/12/21 11:39:16;;;;;;;16.97;3.40;;;8.50;99.90;;;;;;4978590;28;20194;-43
2020/12/21 11:41:41;;;;;;;9.27;2.93;;;8.50;99.90;;;;;;4965308;28;20214;-46
2020/12/21 11:44:07;;;;;;;6.70;2.47;;;8.60;99.90;;;;;;4969524;28;20202;-42
2020/12/21 11:46:35;;;;;;;13.00;3.90;;;8.60;99.90;;;;;;4965458;28;20187;-53
2020/12/21 11:49:00;;;;;;;11.40;3.33;;;8.70;99.90;;;;;;4973320;28;20661;-43
2020/12/21 11:51:26;;;;;;;9.30;2.50;;;8.70;99.90;;;;;;4968927;28;20297;-52
2020/12/21 11:53:52;;;;;;;7.13;2.83;;;8.70;99.90;;;;;;4954033;28;20268;-48
2020/12/21 11:56:18;;;;;;;13.57;4.50;;;8.80;99.90;;;;;;4974313;28;20259;-47
2020/12/21 11:58:44;;;;;;;11.87;4.70;;;8.90;99.90;;;;;;4974681;28;20193;-47
2020/12/21 12:01:09;;;;;;;11.57;5.27;;;8.90;99.90;;;;;;4984596;28;20190;-49
2020/12/21 12:03:35;;;;;;;7.90;2.73;;;8.90;99.90;;;;;;4964207;28;20698;-54
2020/12/21 12:06:01;;;;;;;9.73;2.80;;;8.90;99.90;;;;;;4976455;28;20188;-45
2020/12/21 12:08:27;;;;;;;8.93;4.27;;;9.00;99.90;;;;;;4966228;28;20235;-51
2020/12/21 12:10:52;;;;;;;7.33;2.93;;;9.00;99.90;;;;;;4977132;28;20201;-45
2020/12/21 12:13:18;;;;;;;4.00;1.87;;;9.10;99.90;;;;;;4976670;28;20551;-52
2020/12/21 12:15:43;;;;;;;7.40;2.20;;;9.10;99.90;;;;;;4967399;28;20207;-42
2020/12/21 12:18:09;;;;;;;4.13;1.90;;;9.10;99.90;;;;;;4967867;28;20673;-43
2020/12/21 12:20:35;;;;;;;6.03;2.10;;;9.10;99.90;;;;;;4965362;28;20201;-52
2020/12/21 12:23:00;;;;;;;7.87;2.33;;;9.10;99.90;;;;;;4957510;28;20214;-47
2020/12/21 12:25:26;;;;;;;7.97;2.93;;;9.10;99.90;;;;;;4972571;28;20247;-53
2020/12/21 12:27:51;;;;;;;7.30;1.67;;;9.10;99.90;;;;;;4970423;28;20185;-48
2020/12/21 12:30:17;;;;;;;6.93;1.90;;;9.20;99.90;;;;;;4974204;28;20193;-44
2020/12/21 12:32:42;;;;;;;6.47;1.87;;;9.20;99.90;;;;;;4970690;28;20218;-45
2020/12/21 12:35:08;;;;;;;5.73;2.57;;;9.20;99.90;;;;;;4978834;28;20185;-43
2020/12/21 12:37:33;;;;;;;5.83;2.33;;;9.20;99.90;;;;;;4965322;28;20206;-56
2020/12/21 12:39:59;;;;;;;5.07;1.87;;;9.20;99.90;;;;;;4964531;28;20186;-48
2020/12/21 12:42:26;;;;;;;6.07;1.73;;;9.20;99.90;;;;;;4972687;28;20267;-55
2020/12/21 12:44:52;;;;;;;6.60;2.20;;;9.20;99.90;;;;;;4976266;28;20295;-44
2020/12/21 12:47:17;;;;;;;7.63;2.47;;;9.20;99.90;;;;;;4976152;28;20784;-45
2020/12/21 12:49:42;;;;;;;3.07;1.60;;;9.20;99.90;;;;;;4965425;28;20193;-43